createdAt,value
2023-02-05T00:00:21.684Z,96891.53
2023-02-05T00:02:52.122Z,96904.75
2023-02-05T00:05:22.895Z,96904.84
2023-02-05T00:07:56.033Z,96904.16
2023-02-05T00:10:26.583Z,96912.97
2023-02-05T00:12:57.055Z,96915.59
2023-02-05T00:15:27.631Z,96913.09
2023-02-05T00:17:58.101Z,96913.31
2023-02-05T00:20:28.872Z,96912.47
2023-02-05T00:23:01.843Z,96916.19
2023-02-05T00:25:32.506Z,96917.97
2023-02-05T00:28:03.366Z,96936.31
2023-02-05T00:30:34.194Z,96927.03
2023-02-05T00:33:04.844Z,96943.81
2023-02-05T00:35:36.012Z,96949.28
2023-02-05T00:38:09.233Z,96952.88
2023-02-05T00:40:39.754Z,96953.94
2023-02-05T00:43:10.188Z,96957.38
2023-02-05T00:45:40.768Z,96961.91
2023-02-05T00:48:11.578Z,96961.31
2023-02-05T00:50:42.258Z,96962.13
2023-02-05T00:53:15.344Z,96970.09
2023-02-05T00:55:45.987Z,96968.44
2023-02-05T00:58:16.419Z,96971.16
2023-02-05T01:00:47.516Z,96970.56
2023-02-05T01:03:17.960Z,96975.22
2023-02-05T01:05:49.038Z,96984.84
2023-02-05T01:08:22.122Z,96992.13
2023-02-05T01:10:54.526Z,96997.56
2023-02-05T01:13:24.977Z,96996.88
2023-02-05T01:15:55.632Z,96996.03
2023-02-05T01:18:26.079Z,96998.25
2023-02-05T01:20:56.819Z,97004.09
2023-02-05T01:23:29.952Z,97009.34
2023-02-05T01:26:00.476Z,97005.06
2023-02-05T01:28:31.013Z,97011.25
2023-02-05T01:31:01.773Z,97010.50
2023-02-05T01:33:32.351Z,97008.84
2023-02-05T01:36:03.414Z,97017.53
2023-02-05T01:38:36.490Z,97016.81
2023-02-05T01:41:09.373Z,97022.16
2023-02-05T01:43:39.900Z,97026.69
2023-02-05T01:46:20.612Z,97029.41
2023-02-05T01:48:56.491Z,97033.94
2023-02-05T01:51:29.998Z,97039.28
2023-02-05T01:54:03.630Z,97031.53
2023-02-05T01:56:39.515Z,97038.53
2023-02-05T01:59:13.301Z,97045.56
2023-02-05T02:01:45.179Z,97050.72
2023-02-05T02:04:20.052Z,97051.63
2023-02-05T02:06:50.758Z,97046.84
2023-02-05T02:09:23.874Z,97054.81
2023-02-05T02:11:54.740Z,97058.28
2023-02-05T02:14:26.629Z,97061.09
2023-02-05T02:16:58.902Z,97063.00
2023-02-05T02:19:34.848Z,97067.63
2023-02-05T02:22:26.210Z,97074.00
2023-02-05T02:25:32.353Z,97087.34
2023-02-05T02:28:10.656Z,97085.78
2023-02-05T02:30:45.727Z,97090.38
2023-02-05T02:33:23.351Z,97093.84
2023-02-05T02:36:01.776Z,97091.31
2023-02-05T02:38:36.221Z,97101.78
2023-02-05T02:41:12.255Z,97105.34
2023-02-05T02:43:51.643Z,97105.56
2023-02-05T02:46:25.962Z,97117.94
2023-02-05T02:48:58.789Z,97117.53
2023-02-05T02:51:31.554Z,97129.25
2023-02-05T02:54:07.062Z,97119.19
2023-02-05T02:56:41.170Z,97124.84
2023-02-05T02:59:18.429Z,97137.41
2023-02-05T03:01:54.019Z,97135.97
2023-02-05T03:04:30.224Z,97141.38
2023-02-05T03:07:08.347Z,97144.94
2023-02-05T03:09:46.115Z,97151.13
2023-02-05T03:12:16.657Z,97150.38
2023-02-05T03:14:49.929Z,97155.59
2023-02-05T03:17:21.586Z,97160.97
2023-02-05T03:20:00.886Z,97180.28
2023-02-05T03:22:31.361Z,97177.16
2023-02-05T03:25:02.525Z,97174.22
2023-02-05T03:27:35.033Z,97183.41
2023-02-05T03:30:11.074Z,97189.97
2023-02-05T03:32:58.360Z,97189.66
2023-02-05T03:35:33.241Z,97198.00
2023-02-05T03:38:19.693Z,97204.44
2023-02-05T03:40:55.270Z,97201.22
2023-02-05T03:43:34.370Z,97214.28
2023-02-05T03:46:14.866Z,97212.69
2023-02-05T03:48:54.927Z,97229.13
2023-02-05T03:51:34.785Z,97206.69
2023-02-05T03:54:14.804Z,97235.25
2023-02-05T03:56:54.772Z,97239.75
2023-02-05T03:59:27.698Z,97242.47
2023-02-05T04:02:03.361Z,97254.81
2023-02-05T04:04:37.602Z,97250.59
2023-02-05T04:07:10.930Z,97266.47
2023-02-05T04:09:42.391Z,97266.75
2023-02-05T04:12:13.570Z,97275.63
2023-02-05T04:14:44.912Z,97281.03
2023-02-05T04:17:19.106Z,97278.53
2023-02-05T04:19:50.278Z,97277.78
2023-02-05T04:22:23.014Z,97280.38
2023-02-05T04:24:53.555Z,97291.00
2023-02-05T04:27:24.893Z,97285.78
2023-02-05T04:29:56.123Z,97288.78
2023-02-05T04:32:29.956Z,97289.56
2023-02-05T04:35:01.227Z,97299.16
2023-02-05T04:37:33.573Z,97304.38
2023-02-05T04:40:04.003Z,97306.13
2023-02-05T04:42:34.582Z,97307.16
2023-02-05T04:45:06.159Z,97310.81
2023-02-05T04:47:39.323Z,97304.75
2023-02-05T04:50:10.157Z,97320.69
2023-02-05T04:52:40.728Z,97332.91
2023-02-05T04:55:11.501Z,97339.06
2023-02-05T04:57:42.667Z,97338.50
2023-02-05T05:00:14.913Z,97349.03
2023-02-05T05:02:48.191Z,97345.78
2023-02-05T05:05:18.911Z,97338.88
2023-02-05T05:07:49.494Z,97344.28
2023-02-05T05:10:20.020Z,97346.97
2023-02-05T05:12:50.585Z,97348.66
2023-02-05T05:15:21.235Z,97358.25
2023-02-05T05:17:54.437Z,97363.66
2023-02-05T05:20:24.980Z,97356.75
2023-02-05T05:22:55.638Z,97356.75
2023-02-05T05:25:26.529Z,97360.31
2023-02-05T05:27:57.090Z,97366.34
2023-02-05T05:30:27.531Z,97367.19
2023-02-05T05:33:00.666Z,97372.34
2023-02-05T05:35:31.175Z,97374.94
2023-02-05T05:38:02.082Z,97376.97
2023-02-05T05:40:45.085Z,97389.75
2023-02-05T05:43:29.470Z,97395.16
2023-02-05T05:46:00.023Z,97395.50
2023-02-05T05:48:33.511Z,97403.59
2023-02-05T05:51:04.019Z,97417.75
2023-02-05T05:53:35.072Z,97422.47
2023-02-05T05:56:05.447Z,97423.69
2023-02-05T05:58:36.023Z,97427.41
2023-02-05T06:01:06.733Z,97434.47
2023-02-05T06:03:39.943Z,97437.16
2023-02-05T06:06:15.817Z,97449.28
2023-02-05T06:08:46.335Z,97447.50
2023-02-05T06:11:16.968Z,97459.66
2023-02-05T06:13:47.502Z,97462.13
2023-02-05T06:16:17.943Z,97472.56
2023-02-05T06:18:51.252Z,97469.13
2023-02-05T06:21:21.726Z,97480.59
2023-02-05T06:23:52.269Z,97476.19
2023-02-05T06:26:22.722Z,97471.19
2023-02-05T06:28:53.244Z,97472.94
2023-02-05T06:31:23.732Z,97486.13
2023-02-05T06:33:57.037Z,97460.56
2023-02-05T06:36:27.933Z,97477.41
2023-02-05T06:38:58.531Z,97457.97
2023-02-05T06:41:29.007Z,97480.91
2023-02-05T06:43:59.747Z,97478.22
2023-02-05T06:46:30.244Z,97482.63
2023-02-05T06:49:03.300Z,97491.19
2023-02-05T06:51:33.765Z,97494.72
2023-02-05T06:54:04.271Z,97496.41
2023-02-05T06:56:34.825Z,97505.91
2023-02-05T06:59:05.388Z,97505.81
2023-02-05T07:01:36.013Z,97513.47
2023-02-05T07:04:09.302Z,97505.56
2023-02-05T07:06:39.760Z,97518.44
2023-02-05T07:09:10.486Z,97510.69
2023-02-05T07:11:41.064Z,97514.91
2023-02-05T07:14:11.667Z,97520.13
2023-02-05T07:16:42.083Z,97529.63
2023-02-05T07:19:15.290Z,97533.91
2023-02-05T07:21:45.890Z,97532.97
2023-02-05T07:24:17.436Z,97530.28
2023-02-05T07:26:47.938Z,97535.44
2023-02-05T07:29:18.573Z,97542.25
2023-02-05T07:31:49.292Z,97543.75
2023-02-05T07:34:22.805Z,97537.53
2023-02-05T07:36:54.146Z,97518.94
2023-02-05T07:39:24.615Z,97545.00
2023-02-05T07:41:55.386Z,97548.38
2023-02-05T07:44:34.616Z,97546.41
2023-02-05T07:47:05.148Z,97555.94
2023-02-05T07:49:38.370Z,97560.03
2023-02-05T07:52:10.155Z,97557.44
2023-02-05T07:54:41.453Z,97559.81
2023-02-05T07:57:12.443Z,97565.03
2023-02-05T07:59:43.102Z,97565.03
2023-02-05T08:02:14.020Z,97571.19
2023-02-05T08:04:47.162Z,97568.56
2023-02-05T08:07:17.672Z,97576.41
2023-02-05T08:09:48.099Z,97575.47
2023-02-05T08:12:18.566Z,97574.69
2023-02-05T08:14:49.050Z,97586.72
2023-02-05T08:17:19.609Z,97578.00
2023-02-05T08:19:53.789Z,97589.25
2023-02-05T08:22:24.366Z,97589.25
2023-02-05T08:24:55.166Z,97590.97
2023-02-05T08:27:25.731Z,97599.53
2023-02-05T08:29:56.344Z,97602.22
2023-02-05T08:32:26.952Z,97608.38
2023-02-05T08:35:00.020Z,97612.66
2023-02-05T08:37:30.909Z,97609.97
2023-02-05T08:40:01.478Z,97612.50
2023-02-05T08:42:33.744Z,97611.31
2023-02-05T08:45:06.177Z,97614.59
2023-02-05T08:47:36.734Z,97621.50
2023-02-05T08:50:10.822Z,97623.28
2023-02-05T08:52:41.395Z,97623.94
2023-02-05T08:55:12.256Z,97618.88
2023-02-05T08:57:43.027Z,97622.84
2023-02-05T09:00:15.614Z,97623.50
2023-02-05T09:02:46.665Z,97633.78
2023-02-05T09:05:20.109Z,97630.16
2023-02-05T09:07:50.636Z,97629.13
2023-02-05T09:10:21.541Z,97627.25
2023-02-05T09:12:53.257Z,97612.28
2023-02-05T09:15:23.707Z,97627.59
2023-02-05T09:17:54.314Z,97626.41
2023-02-05T09:20:27.527Z,97626.03
2023-02-05T09:22:58.067Z,97626.81
2023-02-05T09:25:29.665Z,97622.88
2023-02-05T09:28:00.240Z,97623.66
2023-02-05T09:30:30.771Z,97620.09
2023-02-05T09:33:01.264Z,97619.94
2023-02-05T09:35:35.298Z,97620.66
2023-02-05T09:38:06.031Z,97618.81
2023-02-05T09:40:42.570Z,97624.78
2023-02-05T09:43:29.766Z,97617.09
2023-02-05T09:46:05.083Z,97619.56
2023-02-05T09:48:57.956Z,97614.31
2023-02-05T09:51:37.773Z,97611.16
2023-02-05T09:54:18.355Z,97616.00
2023-02-05T09:56:49.895Z,97619.38
2023-02-05T09:59:24.424Z,97615.66
2023-02-05T10:01:58.272Z,97619.78
2023-02-05T10:04:29.286Z,97615.19
2023-02-05T10:07:28.100Z,97611.38
2023-02-05T10:10:29.912Z,97615.50
2023-02-05T10:13:27.913Z,97609.13
2023-02-05T10:16:23.559Z,97602.03
2023-02-05T10:19:20.108Z,97605.59
2023-02-05T10:22:11.373Z,97592.78
2023-02-05T10:25:01.023Z,97604.00
2023-02-05T10:27:41.881Z,97605.75
2023-02-05T10:30:24.184Z,97601.47
2023-02-05T10:33:00.559Z,97598.00
2023-02-05T10:35:44.607Z,97604.00
2023-02-05T10:38:19.851Z,97596.16
2023-02-05T10:40:56.369Z,97596.97
2023-02-05T10:43:33.083Z,97595.13
2023-02-05T10:46:05.062Z,97594.09
2023-02-05T10:48:44.261Z,97593.25
2023-02-05T10:51:17.899Z,97583.91
2023-02-05T10:53:48.478Z,97589.44
2023-02-05T10:56:22.842Z,97591.38
2023-02-05T10:58:56.721Z,97590.72
2023-02-05T11:01:32.014Z,97590.06
2023-02-05T11:04:06.407Z,97568.13
2023-02-05T11:06:42.473Z,97583.16
2023-02-05T11:09:32.859Z,97584.84
2023-02-05T11:12:09.648Z,97582.16
2023-02-05T11:14:43.789Z,97590.00
2023-02-05T11:17:24.770Z,97577.75
2023-02-05T11:19:57.130Z,97584.75
2023-02-05T11:22:30.568Z,97584.63
2023-02-05T11:25:09.955Z,97580.56
2023-02-05T11:27:43.058Z,97579.78
2023-02-05T11:30:49.642Z,97573.84
2023-02-05T11:33:32.694Z,97574.84
2023-02-05T11:36:06.112Z,97577.47
2023-02-05T11:38:45.173Z,97570.63
2023-02-05T11:41:18.827Z,97578.59
2023-02-05T11:43:54.262Z,97584.53
2023-02-05T11:46:27.847Z,97577.47
2023-02-05T11:49:01.761Z,97580.72
2023-02-05T11:51:46.106Z,97580.56
2023-02-05T11:54:23.510Z,97573.44
2023-02-05T11:57:05.328Z,97575.97
2023-02-05T11:59:39.537Z,97581.22
2023-02-05T12:02:31.499Z,97576.16
2023-02-05T12:05:09.504Z,97588.41
2023-02-05T12:07:45.825Z,97573.06
2023-02-05T12:10:20.069Z,97576.72
2023-02-05T12:13:03.378Z,97577.72
2023-02-05T12:15:43.867Z,97571.00
2023-02-05T12:18:26.978Z,97578.84
2023-02-05T12:21:12.270Z,97573.63
2023-02-05T12:24:02.842Z,97583.13
2023-02-05T12:26:37.138Z,97583.13
2023-02-05T12:29:28.032Z,97584.84
2023-02-05T12:32:09.502Z,97592.56
2023-02-05T12:34:49.285Z,97591.75
2023-02-05T12:37:36.553Z,97589.13
2023-02-05T12:40:19.856Z,97586.50
2023-02-05T12:43:00.849Z,97582.22
2023-02-05T12:45:51.912Z,97588.44
2023-02-05T12:48:41.069Z,97590.88
2023-02-05T12:51:41.150Z,97593.41
2023-02-05T12:54:37.419Z,97590.81
2023-02-05T12:57:10.475Z,97598.47
2023-02-05T12:59:45.907Z,97594.16
2023-02-05T13:02:27.236Z,97594.16
2023-02-05T13:05:11.899Z,97592.56
2023-02-05T13:07:45.966Z,97593.50
2023-02-05T13:10:21.588Z,97597.13
2023-02-05T13:12:58.100Z,97598.00
2023-02-05T13:15:34.166Z,97595.63
2023-02-05T13:18:09.562Z,97594.81
2023-02-05T13:20:58.017Z,97608.53
2023-02-05T13:23:40.985Z,97611.97
2023-02-05T13:26:28.753Z,97612.81
2023-02-05T13:29:07.053Z,97610.50
2023-02-05T13:31:43.702Z,97620.66
2023-02-05T13:34:18.345Z,97609.47
2023-02-05T13:37:18.970Z,97615.59
2023-02-05T13:40:13.824Z,97610.59
2023-02-05T13:43:11.235Z,97617.66
2023-02-05T13:46:06.826Z,97612.63
2023-02-05T13:49:04.548Z,97614.38
2023-02-05T13:51:46.076Z,97611.84
2023-02-05T13:55:00.542Z,97618.97
2023-02-05T13:58:22.481Z,97616.44
2023-02-05T14:00:59.384Z,97617.44
2023-02-05T14:03:39.135Z,97618.09
2023-02-05T14:06:24.576Z,97622.47
2023-02-05T14:09:02.535Z,97615.56
2023-02-05T14:11:48.246Z,97617.25
2023-02-05T14:14:30.584Z,97616.50
2023-02-05T14:17:02.913Z,97613.81
2023-02-05T14:19:59.166Z,97616.59
2023-02-05T14:22:42.464Z,97616.78
2023-02-05T14:25:54.541Z,97618.47
2023-02-05T14:28:39.585Z,97620.31
2023-02-05T14:31:32.716Z,97619.50
2023-02-05T14:34:45.069Z,97623.94
2023-02-05T14:37:33.942Z,97623.28
2023-02-05T14:40:17.749Z,97620.19
2023-02-05T14:42:48.344Z,97628.84
2023-02-05T14:45:20.192Z,97638.56
2023-02-05T14:47:53.803Z,97633.50
2023-02-05T14:50:27.903Z,97634.53
2023-02-05T14:53:01.920Z,97627.03
2023-02-05T14:55:40.036Z,97626.28
2023-02-05T14:58:24.245Z,97629.97
2023-02-05T15:00:54.776Z,97629.25
2023-02-05T15:03:43.049Z,97634.63
2023-02-05T15:06:20.224Z,97642.66
2023-02-05T15:08:59.456Z,97643.75
2023-02-05T15:11:47.244Z,97639.63
2023-02-05T15:14:41.806Z,97650.22
2023-02-05T15:17:43.489Z,97651.25
2023-02-05T15:20:23.918Z,97644.50
2023-02-05T15:23:04.185Z,97650.00
2023-02-05T15:25:40.365Z,97658.72
2023-02-05T15:28:20.492Z,97657.13
2023-02-05T15:30:56.353Z,97666.91
2023-02-05T15:33:36.087Z,97671.44
2023-02-05T15:36:20.870Z,97680.19
2023-02-05T15:39:03.362Z,97675.06
2023-02-05T15:41:36.379Z,97669.06
2023-02-05T15:44:07.644Z,97678.75
2023-02-05T15:46:38.156Z,97680.59
2023-02-05T15:49:09.196Z,97683.38
2023-02-05T15:51:42.720Z,97681.88
2023-02-05T15:54:23.465Z,97686.31
2023-02-05T15:56:56.788Z,97686.47
2023-02-05T15:59:31.502Z,97691.88
2023-02-05T16:02:09.214Z,97686.88
2023-02-05T16:04:41.905Z,97690.50
2023-02-05T16:07:26.628Z,97701.00
2023-02-05T16:09:59.616Z,97701.06
2023-02-05T16:12:32.055Z,97695.84
2023-02-05T16:15:07.633Z,97699.47
2023-02-05T16:17:42.556Z,97699.47
2023-02-05T16:20:24.095Z,97705.63
2023-02-05T16:23:00.766Z,97703.16
2023-02-05T16:25:42.948Z,97717.28
2023-02-05T16:28:21.840Z,97721.81
2023-02-05T16:30:57.112Z,97713.31
2023-02-05T16:33:32.424Z,97716.91
2023-02-05T16:36:06.511Z,97715.31
2023-02-05T16:38:39.613Z,97710.16
2023-02-05T16:41:24.162Z,97718.91
2023-02-05T16:43:56.406Z,97713.78
2023-02-05T16:46:29.658Z,97712.00
2023-02-05T16:49:03.037Z,97712.00
2023-02-05T16:51:56.923Z,97696.06
2023-02-05T16:54:38.184Z,97711.84
2023-02-05T16:57:13.716Z,97704.03
2023-02-05T16:59:51.933Z,97704.97
2023-02-05T17:02:31.270Z,97703.28
2023-02-05T17:05:03.507Z,97703.28
2023-02-05T17:07:35.149Z,97707.72
2023-02-05T17:10:18.012Z,97708.63
2023-02-05T17:12:56.068Z,97701.81
2023-02-05T17:15:35.910Z,97706.25
2023-02-05T17:18:32.403Z,97695.81
2023-02-05T17:21:27.614Z,97698.53
2023-02-05T17:24:01.756Z,97701.97
2023-02-05T17:26:36.896Z,97699.50
2023-02-05T17:29:09.644Z,97699.50
2023-02-05T17:31:42.085Z,97673.25
2023-02-05T17:34:13.872Z,97700.38
2023-02-05T17:36:44.350Z,97702.97
2023-02-05T17:39:14.816Z,97702.22
2023-02-05T17:42:00.428Z,97696.28
2023-02-05T17:44:30.858Z,97700.69
2023-02-05T17:47:01.481Z,97699.84
2023-02-05T17:49:32.638Z,97710.31
2023-02-05T17:52:03.246Z,97713.78
2023-02-05T17:54:33.694Z,97712.94
2023-02-05T17:57:17.285Z,97711.19
2023-02-05T17:59:48.812Z,97717.22
2023-02-05T18:02:20.210Z,97722.34
2023-02-05T18:04:50.853Z,97714.47
2023-02-05T18:07:26.981Z,97719.53
2023-02-05T18:09:57.496Z,97712.38
2023-02-05T18:12:30.973Z,97711.72
2023-02-05T18:15:01.615Z,97723.06
2023-02-05T18:17:33.692Z,97732.63
2023-02-05T18:20:04.609Z,97726.94
2023-02-05T18:22:35.384Z,97732.25
2023-02-05T18:25:06.264Z,97732.91
2023-02-05T18:27:39.513Z,97723.03
2023-02-05T18:30:11.518Z,97733.63
2023-02-05T18:32:42.175Z,97722.34
2023-02-05T18:35:14.951Z,97724.56
2023-02-05T18:37:45.960Z,97725.81
2023-02-05T18:40:16.530Z,97736.75
2023-02-05T18:42:52.134Z,97726.25
2023-02-05T18:45:23.180Z,97724.69
2023-02-05T18:47:53.882Z,97725.59
2023-02-05T18:50:27.546Z,97735.50
2023-02-05T18:52:58.160Z,97736.81
2023-02-05T18:55:29.432Z,97731.13
2023-02-05T18:58:02.692Z,97733.06
2023-02-05T19:00:33.961Z,97729.88
2023-02-05T19:03:04.761Z,97735.72
2023-02-05T19:05:37.384Z,97739.47
2023-02-05T19:08:08.464Z,97735.31
2023-02-05T19:10:39.877Z,97738.00
2023-02-05T19:13:13.139Z,97735.41
2023-02-05T19:15:43.612Z,97740.69
2023-02-05T19:18:14.320Z,97738.13
2023-02-05T19:20:46.037Z,97746.47
2023-02-05T19:23:16.967Z,97745.56
2023-02-05T19:25:47.443Z,97739.50
2023-02-05T19:28:20.758Z,97746.31
2023-02-05T19:30:51.316Z,97734.03
2023-02-05T19:33:21.931Z,97744.06
2023-02-05T19:35:52.501Z,97749.91
2023-02-05T19:38:23.279Z,97747.31
2023-02-05T19:40:53.803Z,97740.69
2023-02-05T19:43:27.219Z,97743.78
2023-02-05T19:45:58.007Z,97742.97
2023-02-05T19:48:28.811Z,97747.47
2023-02-05T19:50:59.725Z,97735.78
2023-02-05T19:53:31.221Z,97757.19
2023-02-05T19:56:07.605Z,97763.94
2023-02-05T19:58:42.599Z,97753.25
2023-02-05T20:01:18.063Z,97755.09
2023-02-05T20:03:49.487Z,97766.59
2023-02-05T20:06:22.206Z,97756.47
2023-02-05T20:08:53.332Z,97757.81
2023-02-05T20:11:24.767Z,97767.16
2023-02-05T20:13:59.300Z,97773.84
2023-02-05T20:16:30.386Z,97771.28
2023-02-05T20:19:03.357Z,97776.50
2023-02-05T20:21:34.623Z,97751.44
2023-02-05T20:24:06.077Z,97758.09
2023-02-05T20:26:37.544Z,97771.94
2023-02-05T20:29:23.724Z,97767.06
2023-02-05T20:31:57.429Z,97776.72
2023-02-05T20:34:31.164Z,97775.97
2023-02-05T20:37:05.264Z,97780.38
2023-02-05T20:39:39.944Z,97777.88
2023-02-05T20:42:13.608Z,97774.53
2023-02-05T20:44:48.003Z,97781.53
2023-02-05T20:47:18.534Z,97783.28
2023-02-05T20:49:49.146Z,97785.13
2023-02-05T20:52:19.608Z,97780.94
2023-02-05T20:54:50.340Z,97796.47
2023-02-05T20:57:20.803Z,97790.38
2023-02-05T20:59:54.340Z,97798.06
2023-02-05T21:02:26.707Z,97783.44
2023-02-05T21:04:57.312Z,97785.84
2023-02-05T21:07:29.825Z,97797.78
2023-02-05T21:10:02.473Z,97796.91
2023-02-05T21:12:33.805Z,97798.56
2023-02-05T21:15:07.364Z,97799.88
2023-02-05T21:17:38.201Z,97805.28
2023-02-05T21:20:09.962Z,97804.09
2023-02-05T21:22:40.401Z,97816.00
2023-02-05T21:25:11.588Z,97814.66
2023-02-05T21:27:43.522Z,97814.16
2023-02-05T21:30:17.444Z,97810.84
2023-02-05T21:32:48.016Z,97816.19
2023-02-05T21:35:19.034Z,97818.94
2023-02-05T21:37:49.540Z,97812.31
2023-02-05T21:40:20.903Z,97818.59
2023-02-05T21:42:51.353Z,97817.00
2023-02-05T21:45:24.611Z,97812.81
2023-02-05T21:47:55.075Z,97819.81
2023-02-05T21:50:25.680Z,97818.16
2023-02-05T21:52:57.686Z,97826.09
2023-02-05T21:55:28.362Z,97835.59
2023-02-05T21:57:58.895Z,97828.75
2023-02-05T22:00:32.620Z,97834.91
2023-02-05T22:03:03.172Z,97842.72
2023-02-05T22:05:33.771Z,97846.22
2023-02-05T22:08:04.324Z,97848.75
2023-02-05T22:10:35.056Z,97845.41
2023-02-05T22:13:05.708Z,97842.94
2023-02-05T22:15:38.915Z,97838.88
2023-02-05T22:18:09.415Z,97838.72
2023-02-05T22:20:40.088Z,97843.59
2023-02-05T22:23:10.605Z,97847.78
2023-02-05T22:25:41.566Z,97842.38
2023-02-05T22:28:12.318Z,97841.91
2023-02-05T22:30:45.712Z,97844.00
2023-02-05T22:33:16.135Z,97844.97
2023-02-05T22:35:46.657Z,97846.03
2023-02-05T22:38:17.203Z,97850.41
2023-02-05T22:40:47.752Z,97844.53
2023-02-05T22:43:18.362Z,97845.53
2023-02-05T22:45:51.527Z,97849.94
2023-02-05T22:48:22.029Z,97849.19
2023-02-05T22:50:52.620Z,97852.72
2023-02-05T22:53:23.361Z,97854.72
2023-02-05T22:55:54.050Z,97855.75
2023-02-05T22:58:24.579Z,97851.72
2023-02-05T23:00:57.865Z,97858.81
2023-02-05T23:03:28.437Z,97857.53
2023-02-05T23:05:59.001Z,97855.19
2023-02-05T23:08:29.478Z,97850.38
2023-02-05T23:11:00.027Z,97858.53
2023-02-05T23:13:30.573Z,97859.00
2023-02-05T23:16:08.876Z,97864.69
2023-02-05T23:18:39.547Z,97857.44
2023-02-05T23:21:11.864Z,97867.53
2023-02-05T23:23:42.422Z,97869.91
2023-02-05T23:26:15.126Z,97872.25
2023-02-05T23:28:45.843Z,97867.66
2023-02-05T23:31:19.556Z,97863.38
2023-02-05T23:33:50.221Z,97867.31
2023-02-05T23:36:20.784Z,97871.44
2023-02-05T23:38:54.494Z,97864.47
2023-02-05T23:41:37.966Z,97865.44
2023-02-05T23:44:10.903Z,97869.78
2023-02-05T23:46:45.157Z,97864.03
2023-02-05T23:49:16.355Z,97865.66
2023-02-05T23:51:47.034Z,97870.84
2023-02-05T23:54:17.577Z,97879.31
2023-02-05T23:56:48.348Z,97874.84
2023-02-05T23:59:19.410Z,97885.69
